sensor_id;sensor_type;location;lat;lon;timestamp;temperature;humidity
1283;DHT22;634;48.810;9.148;2022-07-29T00:02:17;23.10;99.90
1283;DHT22;634;48.810;9.148;2022-07-29T00:04:49;23.30;99.90
1283;DHT22;634;48.810;9.148;2022-07-29T00:07:21;23.40;99.90
1283;DHT22;634;48.810;9.148;2022-07-29T00:09:50;23.40;99.90
1283;DHT22;634;48.810;9.148;2022-07-29T00:12:24;23.40;99.90
1283;DHT22;634;48.810;9.148;2022-07-29T00:14:55;23.40;99.90
1283;DHT22;634;48.810;9.148;2022-07-29T00:17:25;23.30;99.90
1283;DHT22;634;48.810;9.148;2022-07-29T00:19:57;23.20;99.90
1283;DHT22;634;48.810;9.148;2022-07-29T00:22:27;23.20;99.90
1283;DHT22;634;48.810;9.148;2022-07-29T00:24:56;23.10;99.90
1283;DHT22;634;48.810;9.148;2022-07-29T00:27:26;23.10;99.90
1283;DHT22;634;48.810;9.148;2022-07-29T00:29:55;23.00;99.90
1283;DHT22;634;48.810;9.148;2022-07-29T00:32:27;22.90;99.90
1283;DHT22;634;48.810;9.148;2022-07-29T00:34:59;22.90;99.90
1283;DHT22;634;48.810;9.148;2022-07-29T00:37:41;22.80;99.90
1283;DHT22;634;48.810;9.148;2022-07-29T00:40:11;22.80;99.90
1283;DHT22;634;48.810;9.148;2022-07-29T00:42:45;22.80;99.90
1283;DHT22;634;48.810;9.148;2022-07-29T00:45:17;22.90;99.90
1283;DHT22;634;48.810;9.148;2022-07-29T00:47:50;22.70;99.90
1283;DHT22;634;48.810;9.148;2022-07-29T00:50:25;22.80;99.90
1283;DHT22;634;48.810;9.148;2022-07-29T00:52:55;22.70;99.90
1283;DHT22;634;48.810;9.148;2022-07-29T00:55:24;22.70;99.90
1283;DHT22;634;48.810;9.148;2022-07-29T00:57:55;22.80;99.90
1283;DHT22;634;48.810;9.148;2022-07-29T01:00:44;22.70;99.90
1283;DHT22;634;48.810;9.148;2022-07-29T01:03:15;22.60;99.90
1283;DHT22;634;48.810;9.148;2022-07-29T01:05:47;22.50;99.90
1283;DHT22;634;48.810;9.148;2022-07-29T01:08:17;22.60;99.90
1283;DHT22;634;48.810;9.148;2022-07-29T01:10:48;22.70;99.90
1283;DHT22;634;48.810;9.148;2022-07-29T01:13:19;22.70;99.90
1283;DHT22;634;48.810;9.148;2022-07-29T01:15:54;22.80;99.90
1283;DHT22;634;48.810;9.148;2022-07-29T01:18:29;22.70;99.90
1283;DHT22;634;48.810;9.148;2022-07-29T01:21:30;22.60;99.90
1283;DHT22;634;48.810;9.148;2022-07-29T01:24:30;22.60;99.90
1283;DHT22;634;48.810;9.148;2022-07-29T01:27:13;22.60;99.90
1283;DHT22;634;48.810;9.148;2022-07-29T01:29:55;22.70;99.90
1283;DHT22;634;48.810;9.148;2022-07-29T01:32:29;22.70;99.90
1283;DHT22;634;48.810;9.148;2022-07-29T01:35:03;22.70;99.90
1283;DHT22;634;48.810;9.148;2022-07-29T01:37:39;22.80;99.90
1283;DHT22;634;48.810;9.148;2022-07-29T01:40:18;22.80;99.90
1283;DHT22;634;48.810;9.148;2022-07-29T01:42:50;22.80;99.90
1283;DHT22;634;48.810;9.148;2022-07-29T01:45:30;22.80;99.90
1283;DHT22;634;48.810;9.148;2022-07-29T01:48:12;22.80;99.90
1283;DHT22;634;48.810;9.148;2022-07-29T01:50:48;22.60;99.90
1283;DHT22;634;48.810;9.148;2022-07-29T01:53:26;22.60;99.90
1283;DHT22;634;48.810;9.148;2022-07-29T01:55:59;22.60;99.90
1283;DHT22;634;48.810;9.148;2022-07-29T01:58:31;22.50;99.90
1283;DHT22;634;48.810;9.148;2022-07-29T02:01:04;22.50;99.90
1283;DHT22;634;48.810;9.148;2022-07-29T02:03:38;22.40;99.90
1283;DHT22;634;48.810;9.148;2022-07-29T02:06:09;22.40;99.90
1283;DHT22;634;48.810;9.148;2022-07-29T02:08:40;22.20;99.90
1283;DHT22;634;48.810;9.148;2022-07-29T02:11:10;22.10;99.90
1283;DHT22;634;48.810;9.148;2022-07-29T02:13:41;22.10;99.90
1283;DHT22;634;48.810;9.148;2022-07-29T02:16:15;22.10;99.90
1283;DHT22;634;48.810;9.148;2022-07-29T02:18:49;22.10;99.90
1283;DHT22;634;48.810;9.148;2022-07-29T02:21:23;22.00;99.90
1283;DHT22;634;48.810;9.148;2022-07-29T02:23:53;22.00;99.90
1283;DHT22;634;48.810;9.148;2022-07-29T02:26:24;22.00;99.90
1283;DHT22;634;48.810;9.148;2022-07-29T02:28:57;22.00;99.90
1283;DHT22;634;48.810;9.148;2022-07-29T02:31:33;21.90;99.90
1283;DHT22;634;48.810;9.148;2022-07-29T02:34:06;21.90;99.90
1283;DHT22;634;48.810;9.148;2022-07-29T02:36:37;21.80;99.90
1283;DHT22;634;48.810;9.148;2022-07-29T02:39:09;22.00;99.90
1283;DHT22;634;48.810;9.148;2022-07-29T02:41:42;22.10;99.90
1283;DHT22;634;48.810;9.148;2022-07-29T02:44:14;22.00;99.90
1283;DHT22;634;48.810;9.148;2022-07-29T02:46:49;22.00;99.90
1283;DHT22;634;48.810;9.148;2022-07-29T02:49:31;22.20;99.90
1283;DHT22;634;48.810;9.148;2022-07-29T02:52:06;22.30;99.90
1283;DHT22;634;48.810;9.148;2022-07-29T02:54:40;22.40;99.90
1283;DHT22;634;48.810;9.148;2022-07-29T02:57:18;22.40;99.90
1283;DHT22;634;48.810;9.148;2022-07-29T02:59:51;22.40;99.90
1283;DHT22;634;48.810;9.148;2022-07-29T03:02:25;22.40;99.90
1283;DHT22;634;48.810;9.148;2022-07-29T03:04:57;22.30;99.90
1283;DHT22;634;48.810;9.148;2022-07-29T03:07:29;22.20;99.90
1283;DHT22;634;48.810;9.148;2022-07-29T03:10:02;22.30;99.90
1283;DHT22;634;48.810;9.148;2022-07-29T03:12:33;22.40;99.90
1283;DHT22;634;48.810;9.148;2022-07-29T03:15:03;22.40;99.90
1283;DHT22;634;48.810;9.148;2022-07-29T03:17:37;22.30;99.90
1283;DHT22;634;48.810;9.148;2022-07-29T03:20:08;22.30;99.90
1283;DHT22;634;48.810;9.148;2022-07-29T03:22:39;22.30;99.90
1283;DHT22;634;48.810;9.148;2022-07-29T03:25:14;22.30;99.90
1283;DHT22;634;48.810;9.148;2022-07-29T03:27:44;22.20;99.90
1283;DHT22;634;48.810;9.148;2022-07-29T03:30:14;22.20;99.90
1283;DHT22;634;48.810;9.148;2022-07-29T03:32:46;22.00;99.90
1283;DHT22;634;48.810;9.148;2022-07-29T03:35:16;21.90;99.90
1283;DHT22;634;48.810;9.148;2022-07-29T03:37:48;21.60;99.90
1283;DHT22;634;48.810;9.148;2022-07-29T03:40:21;21.50;99.90
1283;DHT22;634;48.810;9.148;2022-07-29T03:42:52;21.50;99.90
1283;DHT22;634;48.810;9.148;2022-07-29T03:45:24;21.40;99.90
1283;DHT22;634;48.810;9.148;2022-07-29T03:48:00;21.40;99.90
1283;DHT22;634;48.810;9.148;2022-07-29T03:50:31;21.40;99.90
1283;DHT22;634;48.810;9.148;2022-07-29T03:53:02;21.50;99.90
1283;DHT22;634;48.810;9.148;2022-07-29T03:55:36;21.50;99.90
1283;DHT22;634;48.810;9.148;2022-07-29T03:58:07;21.60;99.90
1283;DHT22;634;48.810;9.148;2022-07-29T04:00:39;21.60;99.90
1283;DHT22;634;48.810;9.148;2022-07-29T04:03:12;21.50;99.90
1283;DHT22;634;48.810;9.148;2022-07-29T04:05:42;21.50;99.90
1283;DHT22;634;48.810;9.148;2022-07-29T04:08:12;21.40;99.90
1283;DHT22;634;48.810;9.148;2022-07-29T04:10:41;21.40;99.90
1283;DHT22;634;48.810;9.148;2022-07-29T04:13:10;21.20;99.90
1283;DHT22;634;48.810;9.148;2022-07-29T04:15:42;21.20;99.90
1283;DHT22;634;48.810;9.148;2022-07-29T04:18:14;21.00;99.90
1283;DHT22;634;48.810;9.148;2022-07-29T04:20:44;20.90;99.90
1283;DHT22;634;48.810;9.148;2022-07-29T04:23:13;21.00;99.90
1283;DHT22;634;48.810;9.148;2022-07-29T04:25:43;21.00;99.90
1283;DHT22;634;48.810;9.148;2022-07-29T04:28:12;20.90;99.90
1283;DHT22;634;48.810;9.148;2022-07-29T04:30:42;20.90;99.90
1283;DHT22;634;48.810;9.148;2022-07-29T04:33:14;20.90;99.90
1283;DHT22;634;48.810;9.148;2022-07-29T04:35:43;21.00;99.90
1283;DHT22;634;48.810;9.148;2022-07-29T04:38:13;20.90;99.90
1283;DHT22;634;48.810;9.148;2022-07-29T04:40:42;20.90;99.90
1283;DHT22;634;48.810;9.148;2022-07-29T04:43:12;21.00;99.90
1283;DHT22;634;48.810;9.148;2022-07-29T04:45:41;21.10;99.90
1283;DHT22;634;48.810;9.148;2022-07-29T04:48:14;21.20;99.90
1283;DHT22;634;48.810;9.148;2022-07-29T04:50:43;21.30;99.90
1283;DHT22;634;48.810;9.148;2022-07-29T04:53:13;21.40;99.90
1283;DHT22;634;48.810;9.148;2022-07-29T04:55:42;21.40;99.90
1283;DHT22;634;48.810;9.148;2022-07-29T04:58:12;21.50;99.90
1283;DHT22;634;48.810;9.148;2022-07-29T05:00:41;21.60;99.90
1283;DHT22;634;48.810;9.148;2022-07-29T05:03:14;21.60;99.90
1283;DHT22;634;48.810;9.148;2022-07-29T05:05:43;21.80;99.90
1283;DHT22;634;48.810;9.148;2022-07-29T05:08:12;22.00;99.90
1283;DHT22;634;48.810;9.148;2022-07-29T05:10:42;21.90;99.90
1283;DHT22;634;48.810;9.148;2022-07-29T05:13:11;21.90;99.90
1283;DHT22;634;48.810;9.148;2022-07-29T05:15:41;22.00;99.90
1283;DHT22;634;48.810;9.148;2022-07-29T05:18:11;22.20;99.90
1283;DHT22;634;48.810;9.148;2022-07-29T05:20:43;22.30;99.90
1283;DHT22;634;48.810;9.148;2022-07-29T05:23:12;22.40;99.90
1283;DHT22;634;48.810;9.148;2022-07-29T05:25:42;22.50;99.90
1283;DHT22;634;48.810;9.148;2022-07-29T05:28:12;22.70;99.90
1283;DHT22;634;48.810;9.148;2022-07-29T05:30:44;22.70;99.90
1283;DHT22;634;48.810;9.148;2022-07-29T05:33:14;22.70;99.60
1283;DHT22;634;48.810;9.148;2022-07-29T05:35:46;22.80;98.80
1283;DHT22;634;48.810;9.148;2022-07-29T05:38:16;22.80;97.30
1283;DHT22;634;48.810;9.148;2022-07-29T05:40:47;22.80;97.80
1283;DHT22;634;48.810;9.148;2022-07-29T05:43:17;23.00;97.50
1283;DHT22;634;48.810;9.148;2022-07-29T05:45:47;23.10;96.30
1283;DHT22;634;48.810;9.148;2022-07-29T05:48:16;23.20;95.50
1283;DHT22;634;48.810;9.148;2022-07-29T05:50:48;23.30;94.70
1283;DHT22;634;48.810;9.148;2022-07-29T05:53:18;23.30;94.60
1283;DHT22;634;48.810;9.148;2022-07-29T05:55:48;23.40;93.90
1283;DHT22;634;48.810;9.148;2022-07-29T05:58:18;23.50;93.80
1283;DHT22;634;48.810;9.148;2022-07-29T06:00:48;23.60;93.30
1283;DHT22;634;48.810;9.148;2022-07-29T06:03:17;23.60;93.50
1283;DHT22;634;48.810;9.148;2022-07-29T06:05:49;23.80;92.50
1283;DHT22;634;48.810;9.148;2022-07-29T06:08:19;23.90;91.50
1283;DHT22;634;48.810;9.148;2022-07-29T06:10:49;23.90;91.80
1283;DHT22;634;48.810;9.148;2022-07-29T06:13:18;23.90;91.70
1283;DHT22;634;48.810;9.148;2022-07-29T06:15:50;24.00;91.20
1283;DHT22;634;48.810;9.148;2022-07-29T06:18:19;24.10;91.60
1283;DHT22;634;48.810;9.148;2022-07-29T06:20:53;24.20;90.90
1283;DHT22;634;48.810;9.148;2022-07-29T06:23:22;24.40;90.40
1283;DHT22;634;48.810;9.148;2022-07-29T06:25:52;24.60;89.60
1283;DHT22;634;48.810;9.148;2022-07-29T06:28:24;24.80;88.60
1283;DHT22;634;48.810;9.148;2022-07-29T06:30:53;25.00;87.20
1283;DHT22;634;48.810;9.148;2022-07-29T06:33:23;25.20;86.00
1283;DHT22;634;48.810;9.148;2022-07-29T06:35:55;25.20;85.10
1283;DHT22;634;48.810;9.148;2022-07-29T06:38:24;25.30;84.70
1283;DHT22;634;48.810;9.148;2022-07-29T06:40:54;25.40;84.90
1283;DHT22;634;48.810;9.148;2022-07-29T06:43:31;25.50;83.50
1283;DHT22;634;48.810;9.148;2022-07-29T06:46:05;25.60;82.60
1283;DHT22;634;48.810;9.148;2022-07-29T06:48:37;25.60;82.10
1283;DHT22;634;48.810;9.148;2022-07-29T06:51:14;25.70;80.50
1283;DHT22;634;48.810;9.148;2022-07-29T06:53:43;25.80;79.60
1283;DHT22;634;48.810;9.148;2022-07-29T06:56:13;25.90;78.90
1283;DHT22;634;48.810;9.148;2022-07-29T06:58:42;25.90;78.30
1283;DHT22;634;48.810;9.148;2022-07-29T07:01:12;25.80;78.50
1283;DHT22;634;48.810;9.148;2022-07-29T07:03:42;25.90;78.00
1283;DHT22;634;48.810;9.148;2022-07-29T07:06:16;25.90;78.30
1283;DHT22;634;48.810;9.148;2022-07-29T07:08:48;26.20;77.90
1283;DHT22;634;48.810;9.148;2022-07-29T07:11:17;26.50;76.20
1283;DHT22;634;48.810;9.148;2022-07-29T07:13:47;26.60;75.10
1283;DHT22;634;48.810;9.148;2022-07-29T07:16:16;26.70;74.60
1283;DHT22;634;48.810;9.148;2022-07-29T07:18:48;26.40;75.70
1283;DHT22;634;48.810;9.148;2022-07-29T07:21:20;26.50;75.90
1283;DHT22;634;48.810;9.148;2022-07-29T07:23:50;26.70;75.00
1283;DHT22;634;48.810;9.148;2022-07-29T07:26:19;26.90;73.50
1283;DHT22;634;48.810;9.148;2022-07-29T07:28:49;27.10;71.90
1283;DHT22;634;48.810;9.148;2022-07-29T07:31:18;27.20;70.70
1283;DHT22;634;48.810;9.148;2022-07-29T07:33:48;27.00;70.80
1283;DHT22;634;48.810;9.148;2022-07-29T07:36:20;26.90;71.30
1283;DHT22;634;48.810;9.148;2022-07-29T07:38:50;26.90;72.00
1283;DHT22;634;48.810;9.148;2022-07-29T07:41:19;26.80;72.50
1283;DHT22;634;48.810;9.148;2022-07-29T07:43:49;26.80;72.00
1283;DHT22;634;48.810;9.148;2022-07-29T07:46:18;26.70;72.50
1283;DHT22;634;48.810;9.148;2022-07-29T07:48:48;26.90;73.40
1283;DHT22;634;48.810;9.148;2022-07-29T07:51:21;27.10;72.50
1283;DHT22;634;48.810;9.148;2022-07-29T07:53:50;27.40;71.60
1283;DHT22;634;48.810;9.148;2022-07-29T07:56:22;27.70;70.50
1283;DHT22;634;48.810;9.148;2022-07-29T07:58:52;28.00;68.00
1283;DHT22;634;48.810;9.148;2022-07-29T08:01:22;28.00;66.20
1283;DHT22;634;48.810;9.148;2022-07-29T08:03:55;28.00;66.90
1283;DHT22;634;48.810;9.148;2022-07-29T08:06:27;28.10;64.50
1283;DHT22;634;48.810;9.148;2022-07-29T08:08:56;28.10;63.90
1283;DHT22;634;48.810;9.148;2022-07-29T08:11:31;28.10;63.10
1283;DHT22;634;48.810;9.148;2022-07-29T08:14:00;28.00;64.20
1283;DHT22;634;48.810;9.148;2022-07-29T08:16:30;28.30;63.40
1283;DHT22;634;48.810;9.148;2022-07-29T08:19:05;28.50;62.50
1283;DHT22;634;48.810;9.148;2022-07-29T08:21:39;28.50;62.50
1283;DHT22;634;48.810;9.148;2022-07-29T08:24:09;28.70;63.20
1283;DHT22;634;48.810;9.148;2022-07-29T08:26:51;29.00;60.70
1283;DHT22;634;48.810;9.148;2022-07-29T08:29:20;29.20;57.60
1283;DHT22;634;48.810;9.148;2022-07-29T08:31:50;29.20;57.40
1283;DHT22;634;48.810;9.148;2022-07-29T08:34:19;29.20;57.30
1283;DHT22;634;48.810;9.148;2022-07-29T08:36:54;29.40;57.00
1283;DHT22;634;48.810;9.148;2022-07-29T08:39:24;29.50;56.50
1283;DHT22;634;48.810;9.148;2022-07-29T08:41:54;29.60;56.00
1283;DHT22;634;48.810;9.148;2022-07-29T08:44:24;29.80;56.20
1283;DHT22;634;48.810;9.148;2022-07-29T08:46:55;30.10;56.40
1283;DHT22;634;48.810;9.148;2022-07-29T08:49:25;30.10;55.70
1283;DHT22;634;48.810;9.148;2022-07-29T08:51:57;30.00;56.50
1283;DHT22;634;48.810;9.148;2022-07-29T08:54:27;30.00;56.60
1283;DHT22;634;48.810;9.148;2022-07-29T08:57:00;30.10;55.80
1283;DHT22;634;48.810;9.148;2022-07-29T08:59:33;30.20;55.40
1283;DHT22;634;48.810;9.148;2022-07-29T09:02:04;30.40;54.70
1283;DHT22;634;48.810;9.148;2022-07-29T09:04:34;30.60;54.20
1283;DHT22;634;48.810;9.148;2022-07-29T09:07:08;30.90;53.10
1283;DHT22;634;48.810;9.148;2022-07-29T09:09:38;31.30;51.60
1283;DHT22;634;48.810;9.148;2022-07-29T09:12:07;31.60;51.00
1283;DHT22;634;48.810;9.148;2022-07-29T09:14:40;32.00;49.70
1283;DHT22;634;48.810;9.148;2022-07-29T09:17:09;32.30;47.90
1283;DHT22;634;48.810;9.148;2022-07-29T09:19:39;32.60;46.80
1283;DHT22;634;48.810;9.148;2022-07-29T09:22:29;33.00;45.30
1283;DHT22;634;48.810;9.148;2022-07-29T09:25:02;33.20;45.10
1283;DHT22;634;48.810;9.148;2022-07-29T09:27:31;33.00;45.00
1283;DHT22;634;48.810;9.148;2022-07-29T09:30:03;33.10;45.00
1283;DHT22;634;48.810;9.148;2022-07-29T09:32:54;33.10;45.20
1283;DHT22;634;48.810;9.148;2022-07-29T09:35:26;33.50;44.80
1283;DHT22;634;48.810;9.148;2022-07-29T09:37:58;33.70;44.50
1283;DHT22;634;48.810;9.148;2022-07-29T09:40:39;33.90;43.20
1283;DHT22;634;48.810;9.148;2022-07-29T09:43:12;34.00;42.90
1283;DHT22;634;48.810;9.148;2022-07-29T09:45:41;34.10;42.40
1283;DHT22;634;48.810;9.148;2022-07-29T09:48:16;34.00;42.60
1283;DHT22;634;48.810;9.148;2022-07-29T09:50:46;34.50;42.40
1283;DHT22;634;48.810;9.148;2022-07-29T09:53:34;35.20;41.20
1283;DHT22;634;48.810;9.148;2022-07-29T09:56:04;35.40;39.80
1283;DHT22;634;48.810;9.148;2022-07-29T09:58:34;35.70;40.10
1283;DHT22;634;48.810;9.148;2022-07-29T10:01:04;36.10;39.10
1283;DHT22;634;48.810;9.148;2022-07-29T10:03:50;36.30;38.10
1283;DHT22;634;48.810;9.148;2022-07-29T10:06:20;36.50;38.40
1283;DHT22;634;48.810;9.148;2022-07-29T10:08:52;36.80;37.50
1283;DHT22;634;48.810;9.148;2022-07-29T10:11:22;37.40;36.70
1283;DHT22;634;48.810;9.148;2022-07-29T10:13:51;37.20;36.40
1283;DHT22;634;48.810;9.148;2022-07-29T10:16:23;36.30;37.40
1283;DHT22;634;48.810;9.148;2022-07-29T10:18:59;36.00;37.80
1283;DHT22;634;48.810;9.148;2022-07-29T10:21:31;35.70;38.30
1283;DHT22;634;48.810;9.148;2022-07-29T10:24:07;35.30;38.40
1283;DHT22;634;48.810;9.148;2022-07-29T10:26:38;34.50;39.40
1283;DHT22;634;48.810;9.148;2022-07-29T10:29:07;33.70;40.30
1283;DHT22;634;48.810;9.148;2022-07-29T10:31:49;33.00;41.80
1283;DHT22;634;48.810;9.148;2022-07-29T10:34:27;32.60;42.90
1283;DHT22;634;48.810;9.148;2022-07-29T10:37:09;32.20;43.60
1283;DHT22;634;48.810;9.148;2022-07-29T10:39:53;31.70;45.00
1283;DHT22;634;48.810;9.148;2022-07-29T10:42:25;31.50;47.80
1283;DHT22;634;48.810;9.148;2022-07-29T10:44:57;31.10;48.70
1283;DHT22;634;48.810;9.148;2022-07-29T10:47:27;30.80;51.20
1283;DHT22;634;48.810;9.148;2022-07-29T10:49:58;30.50;51.10
1283;DHT22;634;48.810;9.148;2022-07-29T10:52:53;30.20;53.20
1283;DHT22;634;48.810;9.148;2022-07-29T10:55:36;28.50;99.90
1283;DHT22;634;48.810;9.148;2022-07-29T10:58:15;25.70;99.90
1283;DHT22;634;48.810;9.148;2022-07-29T11:00:48;24.00;99.90
1283;DHT22;634;48.810;9.148;2022-07-29T11:03:43;22.90;99.90
1283;DHT22;634;48.810;9.148;2022-07-29T11:06:16;22.40;99.90
1283;DHT22;634;48.810;9.148;2022-07-29T11:09:15;21.70;99.90
1283;DHT22;634;48.810;9.148;2022-07-29T11:11:48;20.70;99.90
1283;DHT22;634;48.810;9.148;2022-07-29T11:14:18;20.40;99.90
1283;DHT22;634;48.810;9.148;2022-07-29T11:17:04;20.30;99.90
1283;DHT22;634;48.810;9.148;2022-07-29T11:19:34;20.40;99.90
1283;DHT22;634;48.810;9.148;2022-07-29T11:22:11;21.40;99.90
1283;DHT22;634;48.810;9.148;2022-07-29T11:24:40;21.30;99.90
1283;DHT22;634;48.810;9.148;2022-07-29T11:27:16;21.30;99.90
1283;DHT22;634;48.810;9.148;2022-07-29T11:29:50;21.40;99.90
1283;DHT22;634;48.810;9.148;2022-07-29T11:32:24;21.50;99.90
1283;DHT22;634;48.810;9.148;2022-07-29T11:35:16;21.20;99.90
1283;DHT22;634;48.810;9.148;2022-07-29T11:37:47;21.20;99.90
1283;DHT22;634;48.810;9.148;2022-07-29T11:40:36;20.80;99.90
1283;DHT22;634;48.810;9.148;2022-07-29T11:43:08;20.70;99.90
1283;DHT22;634;48.810;9.148;2022-07-29T11:45:47;20.70;99.90
1283;DHT22;634;48.810;9.148;2022-07-29T11:48:18;20.80;99.90
1283;DHT22;634;48.810;9.148;2022-07-29T11:50:47;20.60;99.90
1283;DHT22;634;48.810;9.148;2022-07-29T11:53:17;20.90;99.90
1283;DHT22;634;48.810;9.148;2022-07-29T11:55:55;21.00;99.90
1283;DHT22;634;48.810;9.148;2022-07-29T11:58:27;21.30;99.90
1283;DHT22;634;48.810;9.148;2022-07-29T12:00:57;21.60;99.90
1283;DHT22;634;48.810;9.148;2022-07-29T12:03:30;21.80;99.90
1283;DHT22;634;48.810;9.148;2022-07-29T12:06:01;21.80;99.90
1283;DHT22;634;48.810;9.148;2022-07-29T12:08:30;21.70;99.90
1283;DHT22;634;48.810;9.148;2022-07-29T12:11:15;21.60;99.90
1283;DHT22;634;48.810;9.148;2022-07-29T12:13:49;21.40;99.90
1283;DHT22;634;48.810;9.148;2022-07-29T12:16:19;21.30;99.90
1283;DHT22;634;48.810;9.148;2022-07-29T12:18:58;21.10;99.90
1283;DHT22;634;48.810;9.148;2022-07-29T12:21:29;21.20;99.90
1283;DHT22;634;48.810;9.148;2022-07-29T12:23:58;20.90;99.90
1283;DHT22;634;48.810;9.148;2022-07-29T12:26:28;20.80;99.90
1283;DHT22;634;48.810;9.148;2022-07-29T12:29:00;20.90;99.90
1283;DHT22;634;48.810;9.148;2022-07-29T12:31:30;21.00;99.90
1283;DHT22;634;48.810;9.148;2022-07-29T12:34:00;21.20;99.90
1283;DHT22;634;48.810;9.148;2022-07-29T12:36:29;21.10;99.90
1283;DHT22;634;48.810;9.148;2022-07-29T12:38:59;21.30;99.90
1283;DHT22;634;48.810;9.148;2022-07-29T12:41:29;21.20;99.90
1283;DHT22;634;48.810;9.148;2022-07-29T12:44:01;21.20;99.90
1283;DHT22;634;48.810;9.148;2022-07-29T12:46:31;21.00;99.90
1283;DHT22;634;48.810;9.148;2022-07-29T12:49:00;21.00;99.90
1283;DHT22;634;48.810;9.148;2022-07-29T12:51:30;21.10;99.90
1283;DHT22;634;48.810;9.148;2022-07-29T12:54:05;21.00;99.90
1283;DHT22;634;48.810;9.148;2022-07-29T12:56:36;21.20;99.90
1283;DHT22;634;48.810;9.148;2022-07-29T12:59:16;21.20;99.90
1283;DHT22;634;48.810;9.148;2022-07-29T13:01:48;21.40;99.90
1283;DHT22;634;48.810;9.148;2022-07-29T13:04:25;21.50;99.90
1283;DHT22;634;48.810;9.148;2022-07-29T13:07:00;21.60;99.90
1283;DHT22;634;48.810;9.148;2022-07-29T13:09:39;21.40;99.90
1283;DHT22;634;48.810;9.148;2022-07-29T13:12:10;21.40;99.90
1283;DHT22;634;48.810;9.148;2022-07-29T13:14:47;21.60;99.90
1283;DHT22;634;48.810;9.148;2022-07-29T13:17:18;21.70;99.90
1283;DHT22;634;48.810;9.148;2022-07-29T13:19:50;21.70;99.90
1283;DHT22;634;48.810;9.148;2022-07-29T13:22:23;21.80;99.90
1283;DHT22;634;48.810;9.148;2022-07-29T13:24:54;21.70;99.90
1283;DHT22;634;48.810;9.148;2022-07-29T13:27:26;21.60;99.90
1283;DHT22;634;48.810;9.148;2022-07-29T13:29:59;21.40;99.90
1283;DHT22;634;48.810;9.148;2022-07-29T13:32:31;21.40;99.90
1283;DHT22;634;48.810;9.148;2022-07-29T13:35:02;21.60;99.90
1283;DHT22;634;48.810;9.148;2022-07-29T13:37:32;21.90;99.90
1283;DHT22;634;48.810;9.148;2022-07-29T13:40:06;21.80;99.90
1283;DHT22;634;48.810;9.148;2022-07-29T13:42:36;21.70;99.90
1283;DHT22;634;48.810;9.148;2022-07-29T13:45:09;21.30;99.90
1283;DHT22;634;48.810;9.148;2022-07-29T13:47:39;21.10;99.90
1283;DHT22;634;48.810;9.148;2022-07-29T13:50:09;21.00;99.90
1283;DHT22;634;48.810;9.148;2022-07-29T13:52:41;21.10;99.90
1283;DHT22;634;48.810;9.148;2022-07-29T13:55:10;21.30;99.90
1283;DHT22;634;48.810;9.148;2022-07-29T13:57:40;21.50;99.90
1283;DHT22;634;48.810;9.148;2022-07-29T14:00:13;21.70;99.90
1283;DHT22;634;48.810;9.148;2022-07-29T14:02:45;22.10;99.90
1283;DHT22;634;48.810;9.148;2022-07-29T14:05:14;22.20;99.90
1283;DHT22;634;48.810;9.148;2022-07-29T14:07:44;22.40;99.90
1283;DHT22;634;48.810;9.148;2022-07-29T14:10:13;22.40;99.90
1283;DHT22;634;48.810;9.148;2022-07-29T14:12:45;22.60;99.90
1283;DHT22;634;48.810;9.148;2022-07-29T14:15:17;23.00;99.90
1283;DHT22;634;48.810;9.148;2022-07-29T14:17:47;23.40;99.90
1283;DHT22;634;48.810;9.148;2022-07-29T14:20:16;23.70;99.90
1283;DHT22;634;48.810;9.148;2022-07-29T14:22:46;23.90;99.90
1283;DHT22;634;48.810;9.148;2022-07-29T14:25:18;24.00;99.90
1283;DHT22;634;48.810;9.148;2022-07-29T14:27:48;24.00;99.90
1283;DHT22;634;48.810;9.148;2022-07-29T14:30:22;24.00;99.90
1283;DHT22;634;48.810;9.148;2022-07-29T14:32:51;24.00;99.90
1283;DHT22;634;48.810;9.148;2022-07-29T14:35:20;24.20;99.90
1283;DHT22;634;48.810;9.148;2022-07-29T14:37:50;24.20;99.90
1283;DHT22;634;48.810;9.148;2022-07-29T14:40:23;24.10;99.90
1283;DHT22;634;48.810;9.148;2022-07-29T14:42:52;24.00;99.90
1283;DHT22;634;48.810;9.148;2022-07-29T14:45:27;24.20;99.90
1283;DHT22;634;48.810;9.148;2022-07-29T14:47:57;24.20;99.90
1283;DHT22;634;48.810;9.148;2022-07-29T14:50:27;24.10;99.90
1283;DHT22;634;48.810;9.148;2022-07-29T14:52:56;24.20;99.90
1283;DHT22;634;48.810;9.148;2022-07-29T14:55:26;24.00;99.90
1283;DHT22;634;48.810;9.148;2022-07-29T14:57:56;23.90;99.90
1283;DHT22;634;48.810;9.148;2022-07-29T15:00:28;23.80;99.90
1283;DHT22;634;48.810;9.148;2022-07-29T15:03:00;23.90;99.90
1283;DHT22;634;48.810;9.148;2022-07-29T15:05:30;23.90;99.90
1283;DHT22;634;48.810;9.148;2022-07-29T15:08:01;24.00;99.90
1283;DHT22;634;48.810;9.148;2022-07-29T15:10:30;24.00;99.90
1283;DHT22;634;48.810;9.148;2022-07-29T15:13:03;24.10;99.90
1283;DHT22;634;48.810;9.148;2022-07-29T15:15:37;24.10;99.90
1283;DHT22;634;48.810;9.148;2022-07-29T15:18:07;24.00;99.90
1283;DHT22;634;48.810;9.148;2022-07-29T15:20:37;24.00;99.90
1283;DHT22;634;48.810;9.148;2022-07-29T15:23:06;24.10;99.90
1283;DHT22;634;48.810;9.148;2022-07-29T15:25:39;24.20;99.90
1283;DHT22;634;48.810;9.148;2022-07-29T15:28:08;24.10;99.90
1283;DHT22;634;48.810;9.148;2022-07-29T15:30:40;23.90;99.90
1283;DHT22;634;48.810;9.148;2022-07-29T15:33:10;23.90;99.90
1283;DHT22;634;48.810;9.148;2022-07-29T15:35:39;23.90;99.90
1283;DHT22;634;48.810;9.148;2022-07-29T15:38:09;23.90;99.90
1283;DHT22;634;48.810;9.148;2022-07-29T15:40:38;23.90;99.90
1283;DHT22;634;48.810;9.148;2022-07-29T15:43:10;23.90;99.90
1283;DHT22;634;48.810;9.148;2022-07-29T15:45:42;24.10;99.90
1283;DHT22;634;48.810;9.148;2022-07-29T15:48:33;24.20;99.90
1283;DHT22;634;48.810;9.148;2022-07-29T15:51:06;24.10;99.90
1283;DHT22;634;48.810;9.148;2022-07-29T15:53:35;24.00;99.90
1283;DHT22;634;48.810;9.148;2022-07-29T15:56:07;24.00;99.90
1283;DHT22;634;48.810;9.148;2022-07-29T15:58:36;23.90;99.90
1283;DHT22;634;48.810;9.148;2022-07-29T16:01:12;23.80;99.90
1283;DHT22;634;48.810;9.148;2022-07-29T16:03:41;23.80;99.90
1283;DHT22;634;48.810;9.148;2022-07-29T16:06:11;23.80;99.90
1283;DHT22;634;48.810;9.148;2022-07-29T16:08:40;23.90;99.90
1283;DHT22;634;48.810;9.148;2022-07-29T16:11:10;23.90;99.90
1283;DHT22;634;48.810;9.148;2022-07-29T16:13:41;23.90;99.90
1283;DHT22;634;48.810;9.148;2022-07-29T16:16:13;24.00;99.90
1283;DHT22;634;48.810;9.148;2022-07-29T16:18:46;24.00;99.90
1283;DHT22;634;48.810;9.148;2022-07-29T16:21:18;24.00;99.90
1283;DHT22;634;48.810;9.148;2022-07-29T16:23:48;24.00;99.90
1283;DHT22;634;48.810;9.148;2022-07-29T16:26:18;24.00;99.90
1283;DHT22;634;48.810;9.148;2022-07-29T16:28:47;24.10;99.90
1283;DHT22;634;48.810;9.148;2022-07-29T16:31:19;24.10;99.90
1283;DHT22;634;48.810;9.148;2022-07-29T16:33:49;24.10;99.90
1283;DHT22;634;48.810;9.148;2022-07-29T16:36:19;24.10;99.90
1283;DHT22;634;48.810;9.148;2022-07-29T16:38:49;24.10;99.90
1283;DHT22;634;48.810;9.148;2022-07-29T16:41:18;24.20;99.90
1283;DHT22;634;48.810;9.148;2022-07-29T16:43:48;24.20;99.90
1283;DHT22;634;48.810;9.148;2022-07-29T16:46:22;24.20;99.90
1283;DHT22;634;48.810;9.148;2022-07-29T16:48:51;24.20;99.90
1283;DHT22;634;48.810;9.148;2022-07-29T16:51:21;24.20;99.90